createdAt,value
2019-03-02T00:00:56.855Z,973.65
2019-03-02T00:01:56.907Z,973.70
2019-03-02T00:02:59.800Z,973.66
2019-03-02T00:03:57.006Z,973.66
2019-03-02T00:04:57.035Z,973.67
2019-03-02T00:06:00.742Z,973.65
2019-03-02T00:06:57.124Z,973.68
2019-03-02T00:07:57.226Z,973.67
2019-03-02T00:08:59.943Z,973.69
2019-03-02T00:09:57.249Z,973.67
2019-03-02T00:10:57.295Z,973.66
2019-03-02T00:11:57.516Z,973.67
2019-03-02T00:12:57.411Z,973.70
2019-03-02T00:13:57.457Z,973.66
2019-03-02T00:14:57.471Z,973.71
2019-03-02T00:15:57.537Z,973.70
2019-03-02T00:16:57.558Z,973.71
2019-03-02T00:17:57.602Z,973.70
2019-03-02T00:18:57.673Z,973.72
2019-03-02T00:19:57.706Z,973.71
2019-03-02T00:20:57.745Z,973.72
2019-03-02T00:21:57.779Z,973.72
2019-03-02T00:22:57.873Z,973.72
2019-03-02T00:23:57.911Z,973.70
2019-03-02T00:24:59.040Z,973.71
2019-03-02T00:25:57.953Z,973.71
2019-03-02T00:26:57.997Z,973.69
2019-03-02T00:27:59.228Z,973.64
2019-03-02T00:28:58.112Z,973.70
2019-03-02T00:29:58.127Z,973.70
2019-03-02T00:30:58.714Z,973.70
2019-03-02T00:31:58.218Z,973.71
2019-03-02T00:32:58.261Z,973.70
2019-03-02T00:33:58.393Z,973.70
2019-03-02T00:34:58.374Z,973.68
2019-03-02T00:35:58.392Z,973.68
2019-03-02T00:36:58.594Z,973.68
2019-03-02T00:37:58.477Z,973.70
2019-03-02T00:38:58.546Z,973.73
2019-03-02T00:39:58.580Z,973.70
2019-03-02T00:40:58.610Z,973.66
2019-03-02T00:41:58.685Z,973.68
2019-03-02T00:42:58.708Z,973.67
2019-03-02T00:43:59.812Z,973.69
2019-03-02T00:44:58.783Z,973.70
2019-03-02T00:45:58.828Z,973.65
2019-03-02T00:46:59.656Z,973.67
2019-03-02T00:47:58.927Z,973.67
2019-03-02T00:48:59.020Z,973.68
2019-03-02T00:50:00.940Z,973.69
2019-03-02T00:50:59.063Z,973.67
2019-03-02T00:51:59.093Z,973.69
2019-03-02T00:52:59.358Z,973.72
2019-03-02T00:53:59.230Z,973.75
2019-03-02T00:54:59.229Z,973.70
2019-03-02T00:55:59.280Z,973.70
2019-03-02T00:56:59.314Z,973.69
2019-03-02T00:57:59.366Z,973.68
2019-03-02T00:59:00.592Z,973.68
2019-03-02T00:59:59.474Z,973.70
2019-03-02T01:00:59.504Z,973.70
2019-03-02T01:02:00.741Z,973.72
2019-03-02T01:02:59.578Z,973.71
2019-03-02T01:03:59.623Z,973.74
2019-03-02T01:05:01.804Z,973.73
2019-03-02T01:05:59.715Z,973.74
2019-03-02T01:06:59.758Z,973.78
2019-03-02T01:08:00.910Z,973.76
2019-03-02T01:08:59.859Z,973.74
2019-03-02T01:09:59.919Z,973.75
2019-03-02T01:10:59.989Z,973.72
2019-03-02T01:11:59.980Z,973.75
2019-03-02T01:13:00.021Z,973.72
2019-03-02T01:14:00.072Z,973.72
2019-03-02T01:15:00.186Z,973.77
2019-03-02T01:16:00.158Z,973.71
2019-03-02T01:17:00.203Z,973.71
2019-03-02T01:18:00.291Z,973.73
2019-03-02T01:19:00.291Z,973.70
2019-03-02T01:20:00.375Z,973.73
2019-03-02T01:21:03.595Z,973.73
2019-03-02T01:22:00.415Z,973.74
2019-03-02T01:23:00.471Z,973.72
2019-03-02T01:24:03.363Z,973.72
2019-03-02T01:25:00.550Z,973.71
2019-03-02T01:26:00.636Z,973.69
2019-03-02T01:27:00.680Z,973.72
2019-03-02T01:28:00.693Z,973.71
2019-03-02T01:29:00.772Z,973.68
2019-03-02T01:30:00.770Z,973.72
2019-03-02T01:31:01.831Z,973.68
2019-03-02T01:32:00.860Z,973.71
2019-03-02T01:33:00.903Z,973.65
2019-03-02T01:34:04.420Z,973.67
2019-03-02T01:35:00.986Z,973.69
2019-03-02T01:36:01.185Z,973.67
2019-03-02T01:37:01.128Z,973.71
2019-03-02T01:38:01.133Z,973.73
2019-03-02T01:39:01.170Z,973.71
2019-03-02T01:40:04.836Z,973.74
2019-03-02T01:41:01.259Z,973.73
2019-03-02T01:42:01.337Z,973.71
2019-03-02T01:43:02.007Z,973.72
2019-03-02T01:44:01.387Z,973.67
2019-03-02T01:45:01.436Z,973.67
2019-03-02T01:46:03.379Z,973.67
2019-03-02T01:47:01.545Z,973.68
2019-03-02T01:48:01.578Z,973.65
2019-03-02T01:49:01.779Z,973.65
2019-03-02T01:50:01.747Z,973.65
2019-03-02T01:51:01.698Z,973.65
2019-03-02T01:52:01.777Z,973.67
2019-03-02T01:53:01.788Z,973.67
2019-03-02T01:54:01.833Z,973.68
2019-03-02T01:55:01.870Z,973.69
2019-03-02T01:56:02.790Z,973.69
2019-03-02T01:57:02.076Z,973.71
2019-03-02T01:58:02.063Z,973.72
2019-03-02T01:59:03.965Z,973.73
2019-03-02T02:00:02.114Z,973.72
2019-03-02T02:01:02.138Z,973.74
2019-03-02T02:02:02.182Z,973.76
2019-03-02T02:03:02.246Z,973.73
2019-03-02T02:04:02.264Z,973.70
2019-03-02T02:05:02.321Z,973.70
2019-03-02T02:06:03.796Z,973.75
2019-03-02T02:07:02.407Z,973.76
2019-03-02T02:08:02.482Z,973.71
2019-03-02T02:09:05.659Z,973.68
2019-03-02T02:10:02.549Z,973.69
2019-03-02T02:11:02.589Z,973.68
2019-03-02T02:12:02.650Z,973.69
2019-03-02T02:13:05.831Z,973.70
2019-03-02T02:14:02.708Z,973.70
2019-03-02T02:15:02.757Z,973.67
2019-03-02T02:16:05.621Z,973.67
2019-03-02T02:17:02.842Z,973.63
2019-03-02T02:18:02.922Z,973.68
2019-03-02T02:19:03.376Z,973.64
2019-03-02T02:20:03.010Z,973.65
2019-03-02T02:21:03.021Z,973.63
2019-03-02T02:22:03.097Z,973.63
2019-03-02T02:23:03.151Z,973.63
2019-03-02T02:24:03.152Z,973.63
2019-03-02T02:25:03.197Z,973.59
2019-03-02T02:26:03.241Z,973.63
2019-03-02T02:27:03.287Z,973.68
2019-03-02T02:28:03.375Z,973.66
2019-03-02T02:29:04.492Z,973.66
2019-03-02T02:30:03.431Z,973.66
2019-03-02T02:31:06.394Z,973.61
2019-03-02T02:32:03.504Z,973.59
2019-03-02T02:33:05.665Z,973.60
2019-03-02T02:34:03.598Z,973.61
2019-03-02T02:35:03.649Z,973.62
2019-03-02T02:36:03.676Z,973.58
2019-03-02T02:37:03.724Z,973.60
2019-03-02T02:38:03.814Z,973.60
2019-03-02T02:39:03.829Z,973.59
2019-03-02T02:40:08.015Z,973.54
2019-03-02T02:41:03.908Z,973.54
2019-03-02T02:42:05.128Z,973.49
2019-03-02T02:43:03.995Z,973.48
2019-03-02T02:44:04.057Z,973.46
2019-03-02T02:45:04.076Z,973.50
2019-03-02T02:46:04.135Z,973.52
2019-03-02T02:47:07.358Z,973.52
2019-03-02T02:48:04.214Z,973.52
2019-03-02T02:49:05.303Z,973.48
2019-03-02T02:50:04.296Z,973.47
2019-03-02T02:51:09.721Z,973.49
2019-03-02T02:52:04.380Z,973.47
2019-03-02T02:53:06.940Z,973.46
2019-03-02T02:54:04.547Z,973.44
2019-03-02T02:55:04.515Z,973.42
2019-03-02T02:56:04.582Z,973.35
2019-03-02T02:57:04.603Z,973.35
2019-03-02T02:58:04.643Z,973.35
2019-03-02T02:59:04.705Z,973.35
2019-03-02T03:00:04.731Z,973.36
2019-03-02T03:01:04.794Z,973.34
2019-03-02T03:02:06.468Z,973.33
2019-03-02T03:03:04.912Z,973.30
2019-03-02T03:04:04.936Z,973.31
2019-03-02T03:05:04.950Z,973.23
2019-03-02T03:06:04.995Z,973.30
2019-03-02T03:07:07.138Z,973.24
2019-03-02T03:08:05.091Z,973.25
2019-03-02T03:09:09.343Z,973.20
2019-03-02T03:10:05.173Z,973.21
2019-03-02T03:11:06.549Z,973.23
2019-03-02T03:12:05.255Z,973.18
2019-03-02T03:13:05.304Z,973.18
2019-03-02T03:14:05.401Z,973.19
2019-03-02T03:15:05.414Z,973.21
2019-03-02T03:16:05.442Z,973.24
2019-03-02T03:17:05.488Z,973.28
2019-03-02T03:18:11.661Z,973.24
2019-03-02T03:19:05.585Z,973.27
2019-03-02T03:20:10.392Z,973.31
2019-03-02T03:21:05.653Z,973.25
2019-03-02T03:22:07.188Z,973.24
2019-03-02T03:23:05.741Z,973.28
2019-03-02T03:24:05.815Z,973.26
2019-03-02T03:25:05.858Z,973.30
2019-03-02T03:26:05.895Z,973.29
2019-03-02T03:27:09.081Z,973.32
2019-03-02T03:28:05.965Z,973.29
2019-03-02T03:29:09.781Z,973.31
2019-03-02T03:30:06.067Z,973.32
2019-03-02T03:31:06.131Z,973.28
2019-03-02T03:32:08.948Z,973.33
2019-03-02T03:33:06.241Z,973.34
2019-03-02T03:34:06.260Z,973.35
2019-03-02T03:35:15.729Z,973.36
2019-03-02T03:36:06.330Z,973.38
2019-03-02T03:37:08.456Z,973.34
2019-03-02T03:38:06.451Z,973.38
2019-03-02T03:39:07.177Z,973.42
2019-03-02T03:40:06.560Z,973.39
2019-03-02T03:41:06.863Z,973.39
2019-03-02T03:42:06.571Z,973.35
2019-03-02T03:43:06.612Z,973.38
2019-03-02T03:44:06.658Z,973.33
2019-03-02T03:45:06.699Z,973.37
2019-03-02T03:46:06.763Z,973.29
2019-03-02T03:47:06.862Z,973.30
2019-03-02T03:48:06.832Z,973.27
2019-03-02T03:49:06.878Z,973.24
2019-03-02T03:50:09.289Z,973.25
2019-03-02T03:51:06.995Z,973.25
2019-03-02T03:52:09.142Z,973.26
2019-03-02T03:53:07.052Z,973.19
2019-03-02T03:54:08.796Z,973.29
2019-03-02T03:55:07.151Z,973.20
2019-03-02T03:56:07.204Z,973.24
2019-03-02T03:57:07.230Z,973.29
2019-03-02T03:58:07.271Z,973.29
2019-03-02T03:59:07.316Z,973.25
2019-03-02T04:00:07.365Z,973.30
2019-03-02T04:01:07.467Z,973.25
2019-03-02T04:02:07.460Z,973.26
2019-03-02T04:03:08.899Z,973.28
2019-03-02T04:04:07.537Z,973.26
2019-03-02T04:05:08.526Z,973.26
2019-03-02T04:06:07.650Z,973.26
2019-03-02T04:07:08.211Z,973.25
2019-03-02T04:08:07.713Z,973.28
2019-03-02T04:09:08.717Z,973.28
2019-03-02T04:10:07.801Z,973.23
2019-03-02T04:11:07.861Z,973.24
2019-03-02T04:12:07.988Z,973.26
2019-03-02T04:13:07.989Z,973.24
2019-03-02T04:14:07.969Z,973.24
2019-03-02T04:15:08.022Z,973.21
2019-03-02T04:16:08.059Z,973.22
2019-03-02T04:17:08.134Z,973.28
2019-03-02T04:18:08.148Z,973.28
2019-03-02T04:19:08.199Z,973.31
2019-03-02T04:20:12.554Z,973.31
2019-03-02T04:21:08.287Z,973.33
2019-03-02T04:22:08.340Z,973.33
2019-03-02T04:23:08.377Z,973.32
2019-03-02T04:24:08.414Z,973.34
2019-03-02T04:25:12.840Z,973.28
2019-03-02T04:26:08.496Z,973.25
2019-03-02T04:27:11.038Z,973.30
2019-03-02T04:28:08.607Z,973.25
2019-03-02T04:29:10.154Z,973.28
2019-03-02T04:30:08.670Z,973.30
2019-03-02T04:31:09.188Z,973.36
2019-03-02T04:32:08.763Z,973.33
2019-03-02T04:33:08.821Z,973.35
2019-03-02T04:34:08.848Z,973.34
2019-03-02T04:35:09.012Z,973.34
2019-03-02T04:36:10.177Z,973.39
2019-03-02T04:37:08.996Z,973.34
2019-03-02T04:38:09.038Z,973.36
2019-03-02T04:39:09.727Z,973.29
2019-03-02T04:40:09.139Z,973.28
2019-03-02T04:41:09.149Z,973.33
2019-03-02T04:42:11.821Z,973.33
2019-03-02T04:43:09.257Z,973.30
2019-03-02T04:44:09.280Z,973.33
2019-03-02T04:45:09.323Z,973.30
2019-03-02T04:46:11.675Z,973.29
2019-03-02T04:47:09.412Z,973.27
2019-03-02T04:48:09.496Z,973.29
2019-03-02T04:49:10.945Z,973.27
2019-03-02T04:50:09.568Z,973.29
2019-03-02T04:51:09.589Z,973.24
2019-03-02T04:52:11.602Z,973.27
2019-03-02T04:53:09.725Z,973.29
2019-03-02T04:54:09.737Z,973.29
2019-03-02T04:55:13.309Z,973.33
2019-03-02T04:56:09.814Z,973.32
2019-03-02T04:57:09.855Z,973.32
2019-03-02T04:58:11.983Z,973.30
2019-03-02T04:59:09.971Z,973.29
2019-03-02T05:00:09.987Z,973.31
2019-03-02T05:01:10.030Z,973.28
2019-03-02T05:02:10.070Z,973.28
2019-03-02T05:03:10.112Z,973.29
2019-03-02T05:04:10.189Z,973.29
2019-03-02T05:05:10.214Z,973.30
2019-03-02T05:06:10.245Z,973.29
2019-03-02T05:07:10.333Z,973.32
2019-03-02T05:08:10.331Z,973.33
2019-03-02T05:09:13.682Z,973.30
2019-03-02T05:10:10.427Z,973.30
2019-03-02T05:11:10.465Z,973.32
2019-03-02T05:12:11.552Z,973.30
2019-03-02T05:13:10.552Z,973.26
2019-03-02T05:14:10.659Z,973.31
2019-03-02T05:15:11.936Z,973.25
2019-03-02T05:16:10.681Z,973.24
2019-03-02T05:17:10.728Z,973.24
2019-03-02T05:18:10.769Z,973.24
2019-03-02T05:19:10.845Z,973.24
2019-03-02T05:20:10.885Z,973.20
2019-03-02T05:21:10.952Z,973.21
2019-03-02T05:22:10.952Z,973.18
2019-03-02T05:23:11.605Z,973.21
2019-03-02T05:24:11.039Z,973.21
2019-03-02T05:25:11.121Z,973.22
2019-03-02T05:26:11.125Z,973.26
2019-03-02T05:27:11.168Z,973.27
2019-03-02T05:28:11.250Z,973.26
2019-03-02T05:29:11.268Z,973.27
2019-03-02T05:30:11.344Z,973.28
2019-03-02T05:31:11.340Z,973.30
2019-03-02T05:32:12.600Z,973.28
2019-03-02T05:33:11.425Z,973.24
2019-03-02T05:34:11.479Z,973.27
2019-03-02T05:35:11.980Z,973.26
2019-03-02T05:36:11.561Z,973.27
2019-03-02T05:37:11.603Z,973.30
2019-03-02T05:38:11.726Z,973.31
2019-03-02T05:39:13.901Z,973.33
2019-03-02T05:40:11.771Z,973.33
2019-03-02T05:41:11.782Z,973.32
2019-03-02T05:42:13.616Z,973.31
2019-03-02T05:43:11.867Z,973.34
2019-03-02T05:44:11.915Z,973.36
2019-03-02T05:45:11.989Z,973.38
2019-03-02T05:46:12.079Z,973.37
2019-03-02T05:47:12.046Z,973.34
2019-03-02T05:48:12.087Z,973.40
2019-03-02T05:49:12.129Z,973.37
2019-03-02T05:50:12.200Z,973.39
2019-03-02T05:51:12.248Z,973.39
2019-03-02T05:52:14.562Z,973.40
2019-03-02T05:53:12.314Z,973.42
2019-03-02T05:54:12.353Z,973.36
2019-03-02T05:55:14.268Z,973.34
2019-03-02T05:56:12.492Z,973.35
2019-03-02T05:57:12.484Z,973.36
2019-03-02T05:58:15.652Z,973.31
2019-03-02T05:59:12.566Z,973.34
2019-03-02T06:00:12.609Z,973.32
2019-03-02T06:01:12.686Z,973.37
2019-03-02T06:02:13.909Z,973.34
2019-03-02T06:03:12.801Z,973.34
2019-03-02T06:04:12.822Z,973.32
2019-03-02T06:05:12.828Z,973.34
2019-03-02T06:06:12.895Z,973.34
2019-03-02T06:07:12.915Z,973.31
2019-03-02T06:08:12.963Z,973.33
2019-03-02T06:09:14.704Z,973.29
2019-03-02T06:10:13.741Z,973.30
2019-03-02T06:11:13.127Z,973.27
2019-03-02T06:12:15.563Z,973.31
2019-03-02T06:13:13.184Z,973.25
2019-03-02T06:14:13.221Z,973.25
2019-03-02T06:15:13.276Z,973.27
2019-03-02T06:16:15.281Z,973.27
2019-03-02T06:17:13.358Z,973.26
2019-03-02T06:18:13.396Z,973.28
2019-03-02T06:19:13.444Z,973.27
2019-03-02T06:20:13.493Z,973.28
2019-03-02T06:21:13.530Z,973.28
2019-03-02T06:22:13.636Z,973.27
2019-03-02T06:23:13.657Z,973.28
2019-03-02T06:24:15.402Z,973.29
2019-03-02T06:25:19.380Z,973.26
2019-03-02T06:26:13.750Z,973.27
2019-03-02T06:27:13.829Z,973.31
2019-03-02T06:28:13.838Z,973.30
2019-03-02T06:29:13.881Z,973.31
2019-03-02T06:30:13.981Z,973.31
2019-03-02T06:31:15.776Z,973.30
2019-03-02T06:32:14.028Z,973.30
2019-03-02T06:33:14.058Z,973.33
2019-03-02T06:34:16.709Z,973.33
2019-03-02T06:35:14.141Z,973.36
2019-03-02T06:36:14.186Z,973.33
2019-03-02T06:37:16.987Z,973.28
2019-03-02T06:38:14.280Z,973.31
2019-03-02T06:39:14.325Z,973.27
2019-03-02T06:40:16.211Z,973.27
2019-03-02T06:41:14.419Z,973.26
2019-03-02T06:42:14.470Z,973.26
2019-03-02T06:43:17.745Z,973.24
2019-03-02T06:44:14.541Z,973.24
2019-03-02T06:45:14.581Z,973.21
2019-03-02T06:46:16.006Z,973.22
2019-03-02T06:47:14.695Z,973.20
2019-03-02T06:48:14.740Z,973.18
2019-03-02T06:49:16.755Z,973.18
2019-03-02T06:50:14.806Z,973.21
2019-03-02T06:51:14.862Z,973.23
2019-03-02T06:52:14.894Z,973.22
2019-03-02T06:53:14.967Z,973.13
2019-03-02T06:54:14.983Z,973.17
2019-03-02T06:55:15.155Z,973.17
2019-03-02T06:56:15.791Z,973.13
2019-03-02T06:57:15.152Z,973.14
2019-03-02T06:58:15.200Z,973.14
2019-03-02T06:59:15.201Z,973.13
2019-03-02T07:00:15.250Z,973.10
2019-03-02T07:01:15.291Z,973.13
2019-03-02T07:02:15.363Z,973.08
2019-03-02T07:03:15.411Z,973.10
2019-03-02T07:04:18.043Z,973.10
2019-03-02T07:05:15.453Z,973.08
2019-03-02T07:06:15.508Z,973.09
2019-03-02T07:07:18.531Z,973.09
2019-03-02T07:08:15.651Z,973.05
2019-03-02T07:09:15.634Z,973.05
2019-03-02T07:10:17.887Z,973.07
2019-03-02T07:11:15.788Z,973.05
2019-03-02T07:12:15.782Z,973.07
2019-03-02T07:13:17.828Z,973.05
2019-03-02T07:14:16.241Z,973.04
2019-03-02T07:15:15.917Z,973.05
2019-03-02T07:16:16.600Z,973.06
2019-03-02T07:17:16.871Z,973.04
2019-03-02T07:18:16.084Z,973.05
2019-03-02T07:19:16.768Z,973.05
2019-03-02T07:20:16.113Z,973.00
2019-03-02T07:21:16.199Z,973.00
2019-03-02T07:22:16.836Z,973.04
2019-03-02T07:23:16.270Z,972.99
2019-03-02T07:24:16.311Z,972.98
2019-03-02T07:25:16.390Z,972.98
2019-03-02T07:26:19.734Z,972.97
2019-03-02T07:27:16.425Z,972.97
2019-03-02T07:28:16.468Z,972.98
2019-03-02T07:29:17.670Z,973.00
2019-03-02T07:30:16.552Z,972.95
2019-03-02T07:31:16.603Z,973.01
2019-03-02T07:32:16.655Z,973.03
2019-03-02T07:33:16.696Z,973.01
2019-03-02T07:34:16.806Z,973.02
2019-03-02T07:35:19.403Z,973.03
2019-03-02T07:36:16.817Z,973.05
2019-03-02T07:37:16.860Z,973.10
2019-03-02T07:38:19.946Z,973.09
2019-03-02T07:39:17.042Z,973.07
2019-03-02T07:40:16.992Z,973.11
2019-03-02T07:41:18.722Z,973.10
2019-03-02T07:42:17.087Z,973.07
2019-03-02T07:43:17.141Z,973.04
2019-03-02T07:44:18.871Z,973.06
2019-03-02T07:45:17.226Z,973.08
2019-03-02T07:46:17.258Z,973.08
2019-03-02T07:47:20.569Z,973.06
2019-03-02T07:48:17.356Z,973.05
2019-03-02T07:49:17.408Z,973.04
2019-03-02T07:50:17.462Z,973.06
2019-03-02T07:51:17.471Z,973.02
2019-03-02T07:52:18.526Z,973.04
2019-03-02T07:53:17.611Z,973.06
2019-03-02T07:54:17.633Z,973.04
2019-03-02T07:55:19.077Z,973.06
2019-03-02T07:56:17.702Z,973.07
2019-03-02T07:57:17.745Z,973.04
2019-03-02T07:58:19.727Z,973.04
2019-03-02T07:59:17.825Z,973.01
2019-03-02T08:00:17.908Z,973.02
2019-03-02T08:01:17.922Z,973.01
2019-03-02T08:02:17.981Z,972.99
2019-03-02T08:03:17.998Z,973.00
2019-03-02T08:04:18.046Z,973.00
2019-03-02T08:05:18.150Z,972.98
2019-03-02T08:06:18.136Z,972.97
2019-03-02T08:07:18.193Z,972.99
2019-03-02T08:08:18.223Z,972.98
2019-03-02T08:09:18.369Z,972.95
2019-03-02T08:10:18.342Z,972.94
2019-03-02T08:11:19.749Z,972.94
2019-03-02T08:12:20.987Z,972.92
2019-03-02T08:13:18.444Z,972.91
2019-03-02T08:14:18.492Z,972.92
2019-03-02T08:15:20.123Z,972.90
2019-03-02T08:16:18.574Z,972.88
2019-03-02T08:17:18.614Z,972.87
2019-03-02T08:18:21.686Z,972.85
2019-03-02T08:19:18.721Z,972.86
2019-03-02T08:20:20.795Z,972.82
2019-03-02T08:21:18.819Z,972.81
2019-03-02T08:22:18.841Z,972.80
2019-03-02T08:23:18.880Z,972.83
2019-03-02T08:24:18.931Z,972.83
2019-03-02T08:25:18.976Z,972.85
2019-03-02T08:26:19.057Z,972.80
2019-03-02T08:27:19.069Z,972.83
2019-03-02T08:28:19.095Z,972.77
2019-03-02T08:29:21.047Z,972.78
2019-03-02T08:30:19.201Z,972.81
2019-03-02T08:31:19.259Z,972.77
2019-03-02T08:32:21.208Z,972.78
2019-03-02T08:33:19.322Z,972.77
2019-03-02T08:34:19.371Z,972.74
2019-03-02T08:35:19.418Z,972.74
2019-03-02T08:36:19.483Z,972.73
2019-03-02T08:37:19.505Z,972.76
2019-03-02T08:38:19.551Z,972.73
2019-03-02T08:39:19.599Z,972.75
2019-03-02T08:40:23.199Z,972.72
2019-03-02T08:41:19.747Z,972.70
2019-03-02T08:42:19.730Z,972.69
2019-03-02T08:43:19.766Z,972.64
2019-03-02T08:44:19.886Z,972.62
2019-03-02T08:45:19.851Z,972.58
2019-03-02T08:46:19.927Z,972.56
2019-03-02T08:47:19.990Z,972.55
2019-03-02T08:48:20.063Z,972.55
2019-03-02T08:49:20.028Z,972.54
2019-03-02T08:50:20.081Z,972.54
2019-03-02T08:51:20.164Z,972.49
2019-03-02T08:52:20.205Z,972.46
2019-03-02T08:53:20.216Z,972.49
2019-03-02T08:54:21.607Z,972.48
2019-03-02T08:55:20.349Z,972.48
2019-03-02T08:56:20.342Z,972.48
2019-03-02T08:57:23.100Z,972.43
2019-03-02T08:58:22.432Z,972.39
2019-03-02T08:59:20.478Z,972.41
2019-03-02T09:00:20.524Z,972.39
2019-03-02T09:01:20.575Z,972.42
2019-03-02T09:02:20.731Z,972.41
2019-03-02T09:03:20.648Z,972.37
2019-03-02T09:04:20.695Z,972.42
2019-03-02T09:05:26.035Z,972.39
2019-03-02T09:06:20.798Z,972.40
2019-03-02T09:07:20.908Z,972.38
2019-03-02T09:08:20.868Z,972.41
2019-03-02T09:09:20.942Z,972.38
2019-03-02T09:10:21.729Z,972.36
2019-03-02T09:11:21.025Z,972.37
2019-03-02T09:12:21.893Z,972.30
2019-03-02T09:13:21.096Z,972.30
2019-03-02T09:14:21.134Z,972.28
2019-03-02T09:15:22.158Z,972.24
2019-03-02T09:16:21.224Z,972.20
2019-03-02T09:17:21.325Z,972.26
2019-03-02T09:18:21.323Z,972.22
2019-03-02T09:19:24.072Z,972.27
2019-03-02T09:20:21.403Z,972.24
2019-03-02T09:21:21.445Z,972.24
2019-03-02T09:22:24.249Z,972.27
2019-03-02T09:23:21.557Z,972.31
2019-03-02T09:24:21.581Z,972.28
2019-03-02T09:25:23.929Z,972.28
2019-03-02T09:26:21.667Z,972.32
2019-03-02T09:27:21.715Z,972.30
2019-03-02T09:28:21.792Z,972.31
2019-03-02T09:29:21.802Z,972.28
2019-03-02T09:30:21.865Z,972.33
2019-03-02T09:31:26.099Z,972.33
2019-03-02T09:32:21.932Z,972.31
2019-03-02T09:33:24.779Z,972.31
2019-03-02T09:34:22.055Z,972.27
2019-03-02T09:35:22.074Z,972.30
2019-03-02T09:36:22.121Z,972.26
2019-03-02T09:37:22.152Z,972.30
2019-03-02T09:38:22.369Z,972.30
2019-03-02T09:39:23.655Z,972.30
2019-03-02T09:40:24.307Z,972.30
2019-03-02T09:41:25.436Z,972.32
2019-03-02T09:42:22.376Z,972.32
2019-03-02T09:43:22.450Z,972.32
2019-03-02T09:44:22.462Z,972.30
2019-03-02T09:45:22.524Z,972.32
2019-03-02T09:46:24.819Z,972.34
2019-03-02T09:47:22.602Z,972.35
2019-03-02T09:48:24.594Z,972.29
2019-03-02T09:49:22.691Z,972.30
2019-03-02T09:50:22.744Z,972.29
2019-03-02T09:51:22.808Z,972.27
2019-03-02T09:52:22.819Z,972.24
2019-03-02T09:53:22.920Z,972.28
2019-03-02T09:54:22.942Z,972.28
2019-03-02T09:55:22.967Z,972.27
2019-03-02T09:56:23.000Z,972.30
2019-03-02T09:57:23.046Z,972.29
2019-03-02T09:58:24.316Z,972.32
2019-03-02T09:59:23.186Z,972.33
2019-03-02T10:00:25.292Z,972.30
2019-03-02T10:01:23.234Z,972.34
2019-03-02T10:02:23.292Z,972.31
2019-03-02T10:03:26.663Z,972.33
2019-03-02T10:04:23.445Z,972.33
2019-03-02T10:05:23.407Z,972.30
2019-03-02T10:06:25.301Z,972.30
2019-03-02T10:07:25.142Z,972.26
2019-03-02T10:08:23.543Z,972.28
2019-03-02T10:09:24.924Z,972.31
2019-03-02T10:10:25.058Z,972.26
2019-03-02T10:11:24.184Z,972.32
2019-03-02T10:12:23.720Z,972.25
2019-03-02T10:13:23.771Z,972.22
2019-03-02T10:14:24.814Z,972.22
2019-03-02T10:15:23.859Z,972.26
2019-03-02T10:16:23.900Z,972.24
2019-03-02T10:17:23.957Z,972.23
2019-03-02T10:18:24.024Z,972.24
2019-03-02T10:19:25.032Z,972.24
2019-03-02T10:20:24.124Z,972.26
2019-03-02T10:21:24.145Z,972.24
2019-03-02T10:22:24.215Z,972.22
2019-03-02T10:23:24.238Z,972.25
2019-03-02T10:24:24.281Z,972.23
2019-03-02T10:25:26.012Z,972.22
2019-03-02T10:26:24.375Z,972.22
2019-03-02T10:27:24.423Z,972.21
2019-03-02T10:28:24.446Z,972.21
2019-03-02T10:29:24.505Z,972.22
2019-03-02T10:30:26.122Z,972.22
2019-03-02T10:31:24.585Z,972.19
2019-03-02T10:32:24.627Z,972.25
2019-03-02T10:33:24.676Z,972.21
2019-03-02T10:34:24.837Z,972.23
2019-03-02T10:35:24.786Z,972.26
2019-03-02T10:36:25.710Z,972.23
2019-03-02T10:37:24.854Z,972.25
2019-03-02T10:38:24.904Z,972.30
2019-03-02T10:39:24.944Z,972.30
2019-03-02T10:40:25.013Z,972.30
2019-03-02T10:41:25.047Z,972.33
2019-03-02T10:42:25.091Z,972.33
2019-03-02T10:43:25.141Z,972.32
2019-03-02T10:44:25.179Z,972.32
2019-03-02T10:45:25.236Z,972.36
2019-03-02T10:46:26.962Z,972.34
2019-03-02T10:47:25.322Z,972.33
2019-03-02T10:48:25.367Z,972.37
2019-03-02T10:49:25.401Z,972.35
2019-03-02T10:50:25.439Z,972.37
2019-03-02T10:51:25.483Z,972.34
2019-03-02T10:52:25.563Z,972.31
2019-03-02T10:53:27.372Z,972.32
2019-03-02T10:54:25.619Z,972.38
2019-03-02T10:55:25.677Z,972.36
2019-03-02T10:56:26.006Z,972.38
2019-03-02T10:57:25.762Z,972.40
2019-03-02T10:58:25.827Z,972.41
2019-03-02T10:59:25.867Z,972.39
2019-03-02T11:00:29.464Z,972.41
2019-03-02T11:01:25.945Z,972.45
2019-03-02T11:02:25.991Z,972.44
2019-03-02T11:03:27.882Z,972.41
2019-03-02T11:04:26.085Z,972.41
2019-03-02T11:05:26.148Z,972.39
2019-03-02T11:06:26.175Z,972.41
2019-03-02T11:07:26.270Z,972.38
2019-03-02T11:08:26.542Z,972.43
2019-03-02T11:09:26.304Z,972.43
2019-03-02T11:10:26.348Z,972.44
2019-03-02T11:11:29.886Z,972.44
2019-03-02T11:12:26.461Z,972.41
2019-03-02T11:13:26.479Z,972.42
2019-03-02T11:14:27.789Z,972.39
2019-03-02T11:15:26.593Z,972.42
2019-03-02T11:16:26.697Z,972.44
2019-03-02T11:17:26.667Z,972.43
2019-03-02T11:18:26.723Z,972.43
2019-03-02T11:19:26.756Z,972.41
2019-03-02T11:20:26.803Z,972.46
2019-03-02T11:21:26.883Z,972.46
2019-03-02T11:22:26.903Z,972.47
2019-03-02T11:23:26.949Z,972.42
2019-03-02T11:24:27.013Z,972.41
2019-03-02T11:25:27.034Z,972.40
2019-03-02T11:26:27.077Z,972.34
2019-03-02T11:27:27.157Z,972.37
2019-03-02T11:28:27.177Z,972.35
2019-03-02T11:29:27.221Z,972.40
2019-03-02T11:30:27.261Z,972.41
2019-03-02T11:31:27.307Z,972.39
2019-03-02T11:32:27.408Z,972.37
2019-03-02T11:33:27.602Z,972.39
2019-03-02T11:34:30.451Z,972.37
2019-03-02T11:35:27.503Z,972.39
2019-03-02T11:36:27.563Z,972.40
2019-03-02T11:37:28.340Z,972.44
2019-03-02T11:38:27.635Z,972.40
2019-03-02T11:39:27.669Z,972.42
2019-03-02T11:40:29.217Z,972.39
2019-03-02T11:41:27.767Z,972.38
2019-03-02T11:42:27.822Z,972.37
2019-03-02T11:43:27.878Z,972.41
2019-03-02T11:44:27.914Z,972.35
2019-03-02T11:45:27.957Z,972.40
2019-03-02T11:46:27.993Z,972.36
2019-03-02T11:47:28.033Z,972.37
2019-03-02T11:48:28.102Z,972.37
2019-03-02T11:49:30.617Z,972.40
2019-03-02T11:50:28.185Z,972.41
2019-03-02T11:51:28.228Z,972.42
2019-03-02T11:52:28.313Z,972.43
2019-03-02T11:53:28.344Z,972.40
2019-03-02T11:54:28.798Z,972.42
2019-03-02T11:55:29.022Z,972.40
2019-03-02T11:56:28.449Z,972.37
2019-03-02T11:57:28.491Z,972.40
2019-03-02T11:58:29.913Z,972.38
2019-03-02T11:59:28.633Z,972.42
2019-03-02T12:00:37.444Z,972.41
2019-03-02T12:01:30.025Z,972.42
2019-03-02T12:02:28.760Z,972.44
2019-03-02T12:03:28.770Z,972.43
2019-03-02T12:04:28.837Z,972.42
2019-03-02T12:05:29.472Z,972.41
2019-03-02T12:06:28.910Z,972.42
2019-03-02T12:07:28.955Z,972.40
2019-03-02T12:08:28.997Z,972.36
2019-03-02T12:09:29.710Z,972.35
2019-03-02T12:10:30.310Z,972.35
2019-03-02T12:11:31.233Z,972.31
2019-03-02T12:12:29.208Z,972.30
2019-03-02T12:13:31.499Z,972.36
2019-03-02T12:14:29.316Z,972.32
2019-03-02T12:15:29.370Z,972.33
2019-03-02T12:16:29.403Z,972.32
2019-03-02T12:17:29.421Z,972.35
2019-03-02T12:18:29.466Z,972.33
2019-03-02T12:19:29.855Z,972.36
2019-03-02T12:20:29.556Z,972.34
2019-03-02T12:21:29.621Z,972.36
2019-03-02T12:22:30.289Z,972.36
2019-03-02T12:23:29.689Z,972.36
2019-03-02T12:24:29.771Z,972.36
2019-03-02T12:25:31.130Z,972.35
2019-03-02T12:26:29.843Z,972.36
2019-03-02T12:27:29.884Z,972.32
2019-03-02T12:28:33.079Z,972.32
2019-03-02T12:29:29.991Z,972.35